sensor_id;sensor_type;location;lat;lon;timestamp;P1;durP1;ratioP1;P2;durP2;ratioP2
10847;SDS011;5477;48.806;9.154;2022-11-15T00:00:08;6.30;;;2.63;;
10847;SDS011;5477;48.806;9.154;2022-11-15T00:02:55;3.80;;;2.47;;
10847;SDS011;5477;48.806;9.154;2022-11-15T00:05:41;3.57;;;2.50;;
10847;SDS011;5477;48.806;9.154;2022-11-15T00:08:30;3.70;;;2.50;;
10847;SDS011;5477;48.806;9.154;2022-11-15T00:11:16;5.17;;;2.50;;
10847;SDS011;5477;48.806;9.154;2022-11-15T00:14:03;4.93;;;2.30;;
10847;SDS011;5477;48.806;9.154;2022-11-15T00:16:50;2.87;;;2.30;;
10847;SDS011;5477;48.806;9.154;2022-11-15T00:19:36;4.27;;;2.10;;
10847;SDS011;5477;48.806;9.154;2022-11-15T00:22:23;3.33;;;2.20;;
10847;SDS011;5477;48.806;9.154;2022-11-15T00:25:10;2.90;;;2.40;;
10847;SDS011;5477;48.806;9.154;2022-11-15T00:27:57;5.13;;;2.33;;
10847;SDS011;5477;48.806;9.154;2022-11-15T00:30:44;4.20;;;2.43;;
10847;SDS011;5477;48.806;9.154;2022-11-15T00:33:30;2.50;;;2.07;;
10847;SDS011;5477;48.806;9.154;2022-11-15T00:36:17;2.67;;;2.37;;
10847;SDS011;5477;48.806;9.154;2022-11-15T00:39:04;4.03;;;2.57;;
10847;SDS011;5477;48.806;9.154;2022-11-15T00:41:52;4.67;;;2.70;;
10847;SDS011;5477;48.806;9.154;2022-11-15T00:44:38;3.90;;;3.27;;
10847;SDS011;5477;48.806;9.154;2022-11-15T00:47:25;4.30;;;2.40;;
10847;SDS011;5477;48.806;9.154;2022-11-15T00:50:12;5.30;;;2.17;;
10847;SDS011;5477;48.806;9.154;2022-11-15T00:53:00;6.67;;;2.60;;
10847;SDS011;5477;48.806;9.154;2022-11-15T00:55:47;4.33;;;2.77;;
10847;SDS011;5477;48.806;9.154;2022-11-15T00:58:35;5.93;;;2.60;;
10847;SDS011;5477;48.806;9.154;2022-11-15T01:01:21;3.37;;;2.27;;
10847;SDS011;5477;48.806;9.154;2022-11-15T01:04:08;3.43;;;2.40;;
10847;SDS011;5477;48.806;9.154;2022-11-15T01:06:54;4.13;;;2.60;;
10847;SDS011;5477;48.806;9.154;2022-11-15T01:09:41;4.70;;;2.17;;
10847;SDS011;5477;48.806;9.154;2022-11-15T01:12:28;4.70;;;2.43;;
10847;SDS011;5477;48.806;9.154;2022-11-15T01:15:16;3.13;;;2.40;;
10847;SDS011;5477;48.806;9.154;2022-11-15T01:18:02;3.50;;;2.10;;
10847;SDS011;5477;48.806;9.154;2022-11-15T01:20:49;3.57;;;2.53;;
10847;SDS011;5477;48.806;9.154;2022-11-15T01:23:35;3.20;;;2.40;;
10847;SDS011;5477;48.806;9.154;2022-11-15T01:26:22;3.67;;;1.90;;
10847;SDS011;5477;48.806;9.154;2022-11-15T01:29:09;4.37;;;2.30;;
10847;SDS011;5477;48.806;9.154;2022-11-15T01:31:57;5.20;;;2.57;;
10847;SDS011;5477;48.806;9.154;2022-11-15T01:34:44;5.60;;;3.10;;
10847;SDS011;5477;48.806;9.154;2022-11-15T01:37:31;4.50;;;2.00;;
10847;SDS011;5477;48.806;9.154;2022-11-15T01:40:17;3.70;;;2.60;;
10847;SDS011;5477;48.806;9.154;2022-11-15T01:43:20;4.20;;;2.40;;
10847;SDS011;5477;48.806;9.154;2022-11-15T01:46:14;5.43;;;2.90;;
10847;SDS011;5477;48.806;9.154;2022-11-15T01:49:12;2.93;;;2.20;;
10847;SDS011;5477;48.806;9.154;2022-11-15T01:52:02;2.60;;;2.30;;
10847;SDS011;5477;48.806;9.154;2022-11-15T01:54:53;3.17;;;2.20;;
10847;SDS011;5477;48.806;9.154;2022-11-15T01:57:44;3.87;;;2.00;;
10847;SDS011;5477;48.806;9.154;2022-11-15T02:00:34;4.00;;;2.53;;
10847;SDS011;5477;48.806;9.154;2022-11-15T02:03:21;2.87;;;1.90;;
10847;SDS011;5477;48.806;9.154;2022-11-15T02:06:14;2.53;;;1.90;;
10847;SDS011;5477;48.806;9.154;2022-11-15T02:09:01;3.67;;;2.20;;
10847;SDS011;5477;48.806;9.154;2022-11-15T02:11:48;3.10;;;2.20;;
10847;SDS011;5477;48.806;9.154;2022-11-15T02:14:37;4.90;;;2.20;;
10847;SDS011;5477;48.806;9.154;2022-11-15T02:17:31;3.83;;;2.23;;
10847;SDS011;5477;48.806;9.154;2022-11-15T02:20:33;3.20;;;2.30;;
10847;SDS011;5477;48.806;9.154;2022-11-15T02:33:23;2.80;;;2.10;;
10847;SDS011;5477;48.806;9.154;2022-11-15T02:36:18;3.50;;;2.60;;
10847;SDS011;5477;48.806;9.154;2022-11-15T02:39:15;4.17;;;2.37;;
10847;SDS011;5477;48.806;9.154;2022-11-15T02:42:08;2.77;;;2.20;;
10847;SDS011;5477;48.806;9.154;2022-11-15T02:45:17;3.97;;;2.20;;
10847;SDS011;5477;48.806;9.154;2022-11-15T02:48:10;4.03;;;2.40;;
10847;SDS011;5477;48.806;9.154;2022-11-15T02:50:58;2.67;;;2.13;;
10847;SDS011;5477;48.806;9.154;2022-11-15T02:53:46;5.67;;;2.40;;
10847;SDS011;5477;48.806;9.154;2022-11-15T02:56:32;5.33;;;2.30;;
10847;SDS011;5477;48.806;9.154;2022-11-15T02:59:23;3.27;;;2.10;;
10847;SDS011;5477;48.806;9.154;2022-11-15T03:02:32;2.40;;;2.10;;
10847;SDS011;5477;48.806;9.154;2022-11-15T03:05:33;4.07;;;2.43;;
10847;SDS011;5477;48.806;9.154;2022-11-15T03:08:31;4.03;;;1.87;;
10847;SDS011;5477;48.806;9.154;2022-11-15T03:11:19;3.50;;;2.17;;
10847;SDS011;5477;48.806;9.154;2022-11-15T03:14:10;3.50;;;2.10;;
10847;SDS011;5477;48.806;9.154;2022-11-15T03:17:05;3.37;;;2.10;;
10847;SDS011;5477;48.806;9.154;2022-11-15T03:19:59;5.97;;;2.40;;
10847;SDS011;5477;48.806;9.154;2022-11-15T03:22:50;2.70;;;2.00;;
10847;SDS011;5477;48.806;9.154;2022-11-15T03:25:38;3.13;;;2.10;;
10847;SDS011;5477;48.806;9.154;2022-11-15T03:28:31;2.83;;;1.93;;
10847;SDS011;5477;48.806;9.154;2022-11-15T03:31:21;3.13;;;1.90;;
10847;SDS011;5477;48.806;9.154;2022-11-15T03:34:35;2.57;;;1.73;;
10847;SDS011;5477;48.806;9.154;2022-11-15T03:37:27;3.43;;;2.00;;
10847;SDS011;5477;48.806;9.154;2022-11-15T03:40:21;3.33;;;1.97;;
10847;SDS011;5477;48.806;9.154;2022-11-15T03:43:14;7.57;;;2.00;;
10847;SDS011;5477;48.806;9.154;2022-11-15T03:46:07;3.10;;;1.70;;
10847;SDS011;5477;48.806;9.154;2022-11-15T03:49:01;3.73;;;2.00;;
10847;SDS011;5477;48.806;9.154;2022-11-15T03:51:52;3.10;;;2.20;;
10847;SDS011;5477;48.806;9.154;2022-11-15T03:54:47;2.87;;;2.17;;
10847;SDS011;5477;48.806;9.154;2022-11-15T03:57:35;2.83;;;2.07;;
10847;SDS011;5477;48.806;9.154;2022-11-15T04:00:22;3.37;;;2.00;;
10847;SDS011;5477;48.806;9.154;2022-11-15T04:03:08;3.60;;;2.20;;
10847;SDS011;5477;48.806;9.154;2022-11-15T04:05:55;4.30;;;2.20;;
10847;SDS011;5477;48.806;9.154;2022-11-15T04:08:42;3.27;;;2.00;;
10847;SDS011;5477;48.806;9.154;2022-11-15T04:11:28;2.40;;;2.03;;
10847;SDS011;5477;48.806;9.154;2022-11-15T04:14:16;3.47;;;2.20;;
10847;SDS011;5477;48.806;9.154;2022-11-15T04:17:03;3.43;;;2.20;;
10847;SDS011;5477;48.806;9.154;2022-11-15T04:19:49;3.10;;;1.87;;
10847;SDS011;5477;48.806;9.154;2022-11-15T04:22:59;4.27;;;2.30;;
10847;SDS011;5477;48.806;9.154;2022-11-15T04:26:06;3.30;;;2.20;;
10847;SDS011;5477;48.806;9.154;2022-11-15T04:28:55;3.57;;;2.23;;
10847;SDS011;5477;48.806;9.154;2022-11-15T04:32:00;3.37;;;2.10;;
10847;SDS011;5477;48.806;9.154;2022-11-15T04:34:47;4.43;;;2.50;;
10847;SDS011;5477;48.806;9.154;2022-11-15T04:37:33;5.13;;;2.50;;
10847;SDS011;5477;48.806;9.154;2022-11-15T04:40:19;3.00;;;1.90;;
10847;SDS011;5477;48.806;9.154;2022-11-15T04:43:05;4.20;;;2.10;;
10847;SDS011;5477;48.806;9.154;2022-11-15T04:45:52;2.70;;;1.90;;
10847;SDS011;5477;48.806;9.154;2022-11-15T04:48:40;2.77;;;2.13;;
10847;SDS011;5477;48.806;9.154;2022-11-15T04:51:27;2.50;;;2.00;;
10847;SDS011;5477;48.806;9.154;2022-11-15T04:54:14;2.77;;;2.23;;
10847;SDS011;5477;48.806;9.154;2022-11-15T04:57:00;3.43;;;2.07;;
10847;SDS011;5477;48.806;9.154;2022-11-15T04:59:47;2.00;;;1.70;;
10847;SDS011;5477;48.806;9.154;2022-11-15T05:02:33;3.93;;;2.10;;
10847;SDS011;5477;48.806;9.154;2022-11-15T05:05:39;2.77;;;2.10;;
10847;SDS011;5477;48.806;9.154;2022-11-15T05:08:25;3.10;;;1.97;;
10847;SDS011;5477;48.806;9.154;2022-11-15T05:11:12;4.13;;;2.37;;
10847;SDS011;5477;48.806;9.154;2022-11-15T05:13:59;2.97;;;2.17;;
10847;SDS011;5477;48.806;9.154;2022-11-15T05:16:45;2.50;;;2.13;;
10847;SDS011;5477;48.806;9.154;2022-11-15T05:19:32;3.20;;;2.23;;
10847;SDS011;5477;48.806;9.154;2022-11-15T05:22:21;4.77;;;2.40;;
10847;SDS011;5477;48.806;9.154;2022-11-15T05:25:08;3.00;;;1.80;;
10847;SDS011;5477;48.806;9.154;2022-11-15T05:27:54;3.63;;;2.07;;
10847;SDS011;5477;48.806;9.154;2022-11-15T05:30:41;2.77;;;2.10;;
10847;SDS011;5477;48.806;9.154;2022-11-15T05:33:27;2.37;;;1.83;;
10847;SDS011;5477;48.806;9.154;2022-11-15T05:36:16;5.83;;;2.47;;
10847;SDS011;5477;48.806;9.154;2022-11-15T05:39:06;2.40;;;1.90;;
10847;SDS011;5477;48.806;9.154;2022-11-15T05:41:54;2.43;;;1.80;;
10847;SDS011;5477;48.806;9.154;2022-11-15T05:44:46;2.40;;;1.87;;
10847;SDS011;5477;48.806;9.154;2022-11-15T05:47:35;3.97;;;1.80;;
10847;SDS011;5477;48.806;9.154;2022-11-15T05:50:23;4.47;;;2.07;;
10847;SDS011;5477;48.806;9.154;2022-11-15T05:53:10;3.83;;;1.90;;
10847;SDS011;5477;48.806;9.154;2022-11-15T05:55:59;4.03;;;2.10;;
10847;SDS011;5477;48.806;9.154;2022-11-15T05:58:46;4.07;;;2.20;;
10847;SDS011;5477;48.806;9.154;2022-11-15T06:01:32;3.27;;;2.40;;
10847;SDS011;5477;48.806;9.154;2022-11-15T06:04:19;3.00;;;2.13;;
10847;SDS011;5477;48.806;9.154;2022-11-15T06:07:05;3.67;;;2.57;;
10847;SDS011;5477;48.806;9.154;2022-11-15T06:09:52;4.30;;;2.87;;
10847;SDS011;5477;48.806;9.154;2022-11-15T06:12:40;2.70;;;2.20;;
10847;SDS011;5477;48.806;9.154;2022-11-15T06:15:26;4.50;;;2.20;;
10847;SDS011;5477;48.806;9.154;2022-11-15T06:18:13;3.90;;;2.10;;
10847;SDS011;5477;48.806;9.154;2022-11-15T06:20:59;3.47;;;2.40;;
10847;SDS011;5477;48.806;9.154;2022-11-15T06:23:46;4.40;;;2.47;;
10847;SDS011;5477;48.806;9.154;2022-11-15T06:26:33;3.93;;;2.50;;
10847;SDS011;5477;48.806;9.154;2022-11-15T06:29:21;3.57;;;2.57;;
10847;SDS011;5477;48.806;9.154;2022-11-15T06:32:07;4.63;;;2.43;;
10847;SDS011;5477;48.806;9.154;2022-11-15T06:34:54;3.20;;;2.33;;
10847;SDS011;5477;48.806;9.154;2022-11-15T06:37:40;3.50;;;2.20;;
10847;SDS011;5477;48.806;9.154;2022-11-15T06:40:27;3.43;;;2.07;;
10847;SDS011;5477;48.806;9.154;2022-11-15T06:43:13;3.17;;;2.13;;
10847;SDS011;5477;48.806;9.154;2022-11-15T06:46:02;4.33;;;2.30;;
10847;SDS011;5477;48.806;9.154;2022-11-15T06:48:50;3.57;;;2.30;;
10847;SDS011;5477;48.806;9.154;2022-11-15T06:51:37;2.97;;;2.13;;
10847;SDS011;5477;48.806;9.154;2022-11-15T06:54:23;3.10;;;2.10;;
10847;SDS011;5477;48.806;9.154;2022-11-15T06:57:10;4.43;;;2.30;;
10847;SDS011;5477;48.806;9.154;2022-11-15T06:59:57;3.03;;;2.40;;
10847;SDS011;5477;48.806;9.154;2022-11-15T07:02:45;4.40;;;2.40;;
10847;SDS011;5477;48.806;9.154;2022-11-15T07:05:32;2.70;;;2.30;;
10847;SDS011;5477;48.806;9.154;2022-11-15T07:08:19;3.07;;;2.60;;
10847;SDS011;5477;48.806;9.154;2022-11-15T07:11:06;3.50;;;2.80;;
10847;SDS011;5477;48.806;9.154;2022-11-15T07:13:53;4.40;;;2.90;;
10847;SDS011;5477;48.806;9.154;2022-11-15T07:16:40;3.80;;;2.53;;
10847;SDS011;5477;48.806;9.154;2022-11-15T07:19:28;3.43;;;2.63;;
10847;SDS011;5477;48.806;9.154;2022-11-15T07:22:14;3.67;;;2.50;;
10847;SDS011;5477;48.806;9.154;2022-11-15T07:25:01;3.57;;;2.17;;
10847;SDS011;5477;48.806;9.154;2022-11-15T07:27:53;4.87;;;2.07;;
10847;SDS011;5477;48.806;9.154;2022-11-15T07:30:41;3.17;;;2.20;;
10847;SDS011;5477;48.806;9.154;2022-11-15T07:33:29;3.13;;;2.50;;
10847;SDS011;5477;48.806;9.154;2022-11-15T07:36:17;4.40;;;2.70;;
10847;SDS011;5477;48.806;9.154;2022-11-15T07:39:04;4.40;;;2.33;;
10847;SDS011;5477;48.806;9.154;2022-11-15T07:41:51;2.47;;;2.07;;
10847;SDS011;5477;48.806;9.154;2022-11-15T07:44:58;3.67;;;2.20;;
10847;SDS011;5477;48.806;9.154;2022-11-15T07:47:45;2.93;;;2.30;;
10847;SDS011;5477;48.806;9.154;2022-11-15T07:50:40;3.33;;;2.17;;
10847;SDS011;5477;48.806;9.154;2022-11-15T07:53:29;2.93;;;2.33;;
10847;SDS011;5477;48.806;9.154;2022-11-15T07:56:16;7.00;;;2.60;;
10847;SDS011;5477;48.806;9.154;2022-11-15T07:59:02;3.27;;;2.43;;
10847;SDS011;5477;48.806;9.154;2022-11-15T08:01:49;3.83;;;2.37;;
10847;SDS011;5477;48.806;9.154;2022-11-15T08:04:36;5.03;;;2.80;;
10847;SDS011;5477;48.806;9.154;2022-11-15T08:07:22;8.10;;;3.47;;
10847;SDS011;5477;48.806;9.154;2022-11-15T08:10:10;5.77;;;3.37;;
10847;SDS011;5477;48.806;9.154;2022-11-15T08:12:58;4.77;;;3.37;;
10847;SDS011;5477;48.806;9.154;2022-11-15T08:15:45;4.53;;;3.50;;
10847;SDS011;5477;48.806;9.154;2022-11-15T08:18:38;5.63;;;4.03;;
10847;SDS011;5477;48.806;9.154;2022-11-15T08:21:25;3.87;;;2.23;;
10847;SDS011;5477;48.806;9.154;2022-11-15T08:24:11;4.77;;;2.53;;
10847;SDS011;5477;48.806;9.154;2022-11-15T08:26:59;5.63;;;2.40;;
10847;SDS011;5477;48.806;9.154;2022-11-15T08:29:47;4.13;;;2.20;;
10847;SDS011;5477;48.806;9.154;2022-11-15T08:32:36;4.60;;;2.30;;
10847;SDS011;5477;48.806;9.154;2022-11-15T08:35:24;3.33;;;2.53;;
10847;SDS011;5477;48.806;9.154;2022-11-15T08:38:13;2.50;;;2.30;;
10847;SDS011;5477;48.806;9.154;2022-11-15T08:41:00;3.90;;;2.63;;
10847;SDS011;5477;48.806;9.154;2022-11-15T08:43:50;3.27;;;2.17;;
10847;SDS011;5477;48.806;9.154;2022-11-15T08:46:36;6.87;;;2.30;;
10847;SDS011;5477;48.806;9.154;2022-11-15T08:49:23;5.30;;;2.30;;
10847;SDS011;5477;48.806;9.154;2022-11-15T08:52:10;8.17;;;3.30;;
10847;SDS011;5477;48.806;9.154;2022-11-15T08:54:56;5.00;;;2.87;;
10847;SDS011;5477;48.806;9.154;2022-11-15T08:57:46;12.37;;;4.60;;
10847;SDS011;5477;48.806;9.154;2022-11-15T09:00:34;11.40;;;4.70;;
10847;SDS011;5477;48.806;9.154;2022-11-15T09:03:21;11.43;;;4.50;;
10847;SDS011;5477;48.806;9.154;2022-11-15T09:06:07;6.37;;;4.50;;
10847;SDS011;5477;48.806;9.154;2022-11-15T09:08:54;10.87;;;4.87;;
10847;SDS011;5477;48.806;9.154;2022-11-15T09:11:41;10.60;;;4.70;;
10847;SDS011;5477;48.806;9.154;2022-11-15T09:14:27;7.40;;;4.70;;
10847;SDS011;5477;48.806;9.154;2022-11-15T09:17:15;7.93;;;3.70;;
10847;SDS011;5477;48.806;9.154;2022-11-15T09:20:09;5.50;;;3.60;;
10847;SDS011;5477;48.806;9.154;2022-11-15T09:22:58;9.97;;;4.57;;
10847;SDS011;5477;48.806;9.154;2022-11-15T09:25:45;8.87;;;4.73;;
10847;SDS011;5477;48.806;9.154;2022-11-15T09:28:32;5.20;;;3.80;;
10847;SDS011;5477;48.806;9.154;2022-11-15T09:31:20;9.63;;;5.10;;
10847;SDS011;5477;48.806;9.154;2022-11-15T09:34:08;7.20;;;4.50;;
10847;SDS011;5477;48.806;9.154;2022-11-15T09:36:55;9.60;;;5.30;;
10847;SDS011;5477;48.806;9.154;2022-11-15T09:39:41;7.63;;;4.90;;
10847;SDS011;5477;48.806;9.154;2022-11-15T09:42:38;12.73;;;5.70;;
10847;SDS011;5477;48.806;9.154;2022-11-15T09:45:37;13.20;;;7.63;;
10847;SDS011;5477;48.806;9.154;2022-11-15T09:48:40;7.70;;;5.00;;
10847;SDS011;5477;48.806;9.154;2022-11-15T09:51:29;9.67;;;4.93;;
10847;SDS011;5477;48.806;9.154;2022-11-15T09:54:02;13.67;;;5.70;;
10847;SDS011;5477;48.806;9.154;2022-11-15T09:56:52;16.10;;;5.40;;
10847;SDS011;5477;48.806;9.154;2022-11-15T09:59:27;7.63;;;4.00;;
10847;SDS011;5477;48.806;9.154;2022-11-15T10:02:20;11.47;;;4.83;;
10847;SDS011;5477;48.806;9.154;2022-11-15T10:05:01;4.70;;;2.57;;
10847;SDS011;5477;48.806;9.154;2022-11-15T10:07:34;3.60;;;2.60;;
10847;SDS011;5477;48.806;9.154;2022-11-15T10:10:09;7.27;;;3.10;;
10847;SDS011;5477;48.806;9.154;2022-11-15T10:12:43;3.93;;;2.37;;
10847;SDS011;5477;48.806;9.154;2022-11-15T10:15:15;4.43;;;2.23;;
10847;SDS011;5477;48.806;9.154;2022-11-15T10:17:55;4.40;;;1.93;;
10847;SDS011;5477;48.806;9.154;2022-11-15T10:20:40;3.83;;;2.03;;
10847;SDS011;5477;48.806;9.154;2022-11-15T10:23:15;5.00;;;2.10;;
10847;SDS011;5477;48.806;9.154;2022-11-15T10:25:45;6.37;;;2.10;;
10847;SDS011;5477;48.806;9.154;2022-11-15T10:28:14;3.37;;;2.40;;
10847;SDS011;5477;48.806;9.154;2022-11-15T10:30:45;3.53;;;2.40;;
10847;SDS011;5477;48.806;9.154;2022-11-15T10:33:25;5.20;;;2.00;;
10847;SDS011;5477;48.806;9.154;2022-11-15T10:38:54;2.40;;;1.90;;
10847;SDS011;5477;48.806;9.154;2022-11-15T10:41:30;2.70;;;1.73;;
10847;SDS011;5477;48.806;9.154;2022-11-15T10:44:12;3.90;;;2.00;;
10847;SDS011;5477;48.806;9.154;2022-11-15T10:49:56;3.17;;;1.77;;
10847;SDS011;5477;48.806;9.154;2022-11-15T10:52:25;3.33;;;1.80;;
10847;SDS011;5477;48.806;9.154;2022-11-15T10:54:58;3.77;;;1.77;;
10847;SDS011;5477;48.806;9.154;2022-11-15T10:57:31;4.37;;;1.83;;
10847;SDS011;5477;48.806;9.154;2022-11-15T11:00:02;3.27;;;1.80;;
10847;SDS011;5477;48.806;9.154;2022-11-15T11:02:34;3.57;;;1.80;;
10847;SDS011;5477;48.806;9.154;2022-11-15T11:05:05;5.70;;;2.00;;
10847;SDS011;5477;48.806;9.154;2022-11-15T11:07:34;5.57;;;2.27;;
10847;SDS011;5477;48.806;9.154;2022-11-15T11:10:18;8.47;;;4.23;;
10847;SDS011;5477;48.806;9.154;2022-11-15T11:13:14;8.27;;;4.20;;
10847;SDS011;5477;48.806;9.154;2022-11-15T11:15:51;10.00;;;4.20;;
10847;SDS011;5477;48.806;9.154;2022-11-15T11:18:25;9.20;;;4.27;;
10847;SDS011;5477;48.806;9.154;2022-11-15T11:20:58;9.70;;;5.20;;
10847;SDS011;5477;48.806;9.154;2022-11-15T11:23:36;9.53;;;4.87;;
10847;SDS011;5477;48.806;9.154;2022-11-15T11:26:18;9.97;;;5.33;;
10847;SDS011;5477;48.806;9.154;2022-11-15T11:29:04;10.30;;;5.10;;
10847;SDS011;5477;48.806;9.154;2022-11-15T11:31:43;7.10;;;3.37;;
10847;SDS011;5477;48.806;9.154;2022-11-15T11:34:20;8.37;;;3.53;;
10847;SDS011;5477;48.806;9.154;2022-11-15T11:36:59;5.33;;;3.20;;
10847;SDS011;5477;48.806;9.154;2022-11-15T11:39:40;3.60;;;2.23;;
10847;SDS011;5477;48.806;9.154;2022-11-15T11:42:17;5.37;;;2.33;;
10847;SDS011;5477;48.806;9.154;2022-11-15T11:44:58;2.93;;;2.00;;
10847;SDS011;5477;48.806;9.154;2022-11-15T11:47:38;5.33;;;2.30;;
10847;SDS011;5477;48.806;9.154;2022-11-15T11:50:10;4.80;;;2.43;;
10847;SDS011;5477;48.806;9.154;2022-11-15T11:52:43;3.60;;;2.23;;
10847;SDS011;5477;48.806;9.154;2022-11-15T11:55:16;3.27;;;2.20;;
10847;SDS011;5477;48.806;9.154;2022-11-15T11:57:50;4.07;;;2.60;;
10847;SDS011;5477;48.806;9.154;2022-11-15T12:00:24;9.43;;;7.17;;
10847;SDS011;5477;48.806;9.154;2022-11-15T12:05:43;3.47;;;2.53;;
10847;SDS011;5477;48.806;9.154;2022-11-15T12:11:03;5.00;;;2.33;;
10847;SDS011;5477;48.806;9.154;2022-11-15T12:13:37;6.77;;;3.33;;
10847;SDS011;5477;48.806;9.154;2022-11-15T12:20:19;9.93;;;4.97;;
10847;SDS011;5477;48.806;9.154;2022-11-15T12:22:51;10.27;;;4.43;;
10847;SDS011;5477;48.806;9.154;2022-11-15T12:25:22;22.77;;;13.83;;
10847;SDS011;5477;48.806;9.154;2022-11-15T12:27:56;11.60;;;5.80;;
10847;SDS011;5477;48.806;9.154;2022-11-15T12:30:38;14.83;;;6.10;;
10847;SDS011;5477;48.806;9.154;2022-11-15T12:35:59;13.20;;;6.37;;
10847;SDS011;5477;48.806;9.154;2022-11-15T12:41:22;16.20;;;9.37;;
10847;SDS011;5477;48.806;9.154;2022-11-15T12:43:51;21.07;;;11.27;;
10847;SDS011;5477;48.806;9.154;2022-11-15T12:49:43;13.97;;;6.37;;
10847;SDS011;5477;48.806;9.154;2022-11-15T12:52:12;12.63;;;8.53;;
10847;SDS011;5477;48.806;9.154;2022-11-15T12:54:54;12.60;;;7.80;;
10847;SDS011;5477;48.806;9.154;2022-11-15T12:57:27;11.07;;;5.07;;
10847;SDS011;5477;48.806;9.154;2022-11-15T12:59:57;9.03;;;5.00;;
10847;SDS011;5477;48.806;9.154;2022-11-15T13:02:30;8.57;;;4.60;;
10847;SDS011;5477;48.806;9.154;2022-11-15T13:05:20;11.73;;;7.47;;
10847;SDS011;5477;48.806;9.154;2022-11-15T13:08:35;14.77;;;9.97;;
10847;SDS011;5477;48.806;9.154;2022-11-15T13:20:21;7.57;;;4.67;;
10847;SDS011;5477;48.806;9.154;2022-11-15T13:22:59;8.97;;;5.70;;
10847;SDS011;5477;48.806;9.154;2022-11-15T13:28:34;8.23;;;4.20;;
10847;SDS011;5477;48.806;9.154;2022-11-15T13:31:14;6.30;;;3.87;;
10847;SDS011;5477;48.806;9.154;2022-11-15T13:33:50;7.63;;;3.20;;
10847;SDS011;5477;48.806;9.154;2022-11-15T13:36:22;7.37;;;3.47;;
10847;SDS011;5477;48.806;9.154;2022-11-15T13:38:55;8.87;;;4.07;;
10847;SDS011;5477;48.806;9.154;2022-11-15T13:41:25;7.17;;;3.33;;
10847;SDS011;5477;48.806;9.154;2022-11-15T13:43:54;5.47;;;2.70;;
10847;SDS011;5477;48.806;9.154;2022-11-15T13:46:24;3.80;;;2.57;;
10847;SDS011;5477;48.806;9.154;2022-11-15T13:48:54;3.93;;;2.30;;
10847;SDS011;5477;48.806;9.154;2022-11-15T13:51:29;3.67;;;2.50;;
10847;SDS011;5477;48.806;9.154;2022-11-15T13:54:06;4.67;;;2.57;;
10847;SDS011;5477;48.806;9.154;2022-11-15T13:56:42;4.83;;;2.37;;
10847;SDS011;5477;48.806;9.154;2022-11-15T13:59:14;4.40;;;2.57;;
10847;SDS011;5477;48.806;9.154;2022-11-15T14:01:48;4.00;;;2.50;;
10847;SDS011;5477;48.806;9.154;2022-11-15T14:04:18;5.43;;;2.73;;
10847;SDS011;5477;48.806;9.154;2022-11-15T14:06:50;5.27;;;2.70;;
10847;SDS011;5477;48.806;9.154;2022-11-15T14:09:30;7.43;;;2.60;;
10847;SDS011;5477;48.806;9.154;2022-11-15T14:12:00;4.27;;;2.17;;
10847;SDS011;5477;48.806;9.154;2022-11-15T14:14:47;2.90;;;2.00;;
10847;SDS011;5477;48.806;9.154;2022-11-15T14:17:18;4.57;;;2.33;;
10847;SDS011;5477;48.806;9.154;2022-11-15T14:19:49;5.93;;;2.63;;
10847;SDS011;5477;48.806;9.154;2022-11-15T14:22:20;7.50;;;3.10;;
10847;SDS011;5477;48.806;9.154;2022-11-15T14:25:06;6.03;;;2.93;;
10847;SDS011;5477;48.806;9.154;2022-11-15T14:27:42;4.43;;;3.50;;
10847;SDS011;5477;48.806;9.154;2022-11-15T14:30:14;5.57;;;3.63;;
10847;SDS011;5477;48.806;9.154;2022-11-15T14:32:43;6.43;;;2.87;;
10847;SDS011;5477;48.806;9.154;2022-11-15T14:35:14;5.50;;;3.03;;
10847;SDS011;5477;48.806;9.154;2022-11-15T14:37:45;7.50;;;3.63;;
10847;SDS011;5477;48.806;9.154;2022-11-15T14:40:13;6.63;;;3.30;;
10847;SDS011;5477;48.806;9.154;2022-11-15T14:42:43;6.53;;;3.30;;
10847;SDS011;5477;48.806;9.154;2022-11-15T14:45:14;5.90;;;3.50;;
10847;SDS011;5477;48.806;9.154;2022-11-15T14:47:43;3.87;;;3.00;;
10847;SDS011;5477;48.806;9.154;2022-11-15T14:50:12;5.30;;;2.93;;
10847;SDS011;5477;48.806;9.154;2022-11-15T14:52:41;7.10;;;3.40;;
10847;SDS011;5477;48.806;9.154;2022-11-15T14:55:13;4.63;;;3.13;;
10847;SDS011;5477;48.806;9.154;2022-11-15T14:57:45;5.77;;;3.23;;
10847;SDS011;5477;48.806;9.154;2022-11-15T15:00:13;3.67;;;2.70;;
10847;SDS011;5477;48.806;9.154;2022-11-15T15:02:43;8.57;;;2.93;;
10847;SDS011;5477;48.806;9.154;2022-11-15T15:05:12;6.17;;;2.90;;
10847;SDS011;5477;48.806;9.154;2022-11-15T15:07:42;5.00;;;2.90;;
10847;SDS011;5477;48.806;9.154;2022-11-15T15:10:10;7.30;;;3.30;;
10847;SDS011;5477;48.806;9.154;2022-11-15T15:13:01;5.90;;;3.17;;
10847;SDS011;5477;48.806;9.154;2022-11-15T15:15:31;5.07;;;3.13;;
10847;SDS011;5477;48.806;9.154;2022-11-15T15:18:00;8.10;;;3.33;;
10847;SDS011;5477;48.806;9.154;2022-11-15T15:20:28;7.83;;;4.10;;
10847;SDS011;5477;48.806;9.154;2022-11-15T15:22:57;4.63;;;3.13;;
10847;SDS011;5477;48.806;9.154;2022-11-15T15:25:28;5.63;;;3.30;;
10847;SDS011;5477;48.806;9.154;2022-11-15T15:27:58;5.53;;;3.23;;
10847;SDS011;5477;48.806;9.154;2022-11-15T15:30:27;4.87;;;3.03;;
10847;SDS011;5477;48.806;9.154;2022-11-15T15:32:56;5.53;;;3.10;;
10847;SDS011;5477;48.806;9.154;2022-11-15T15:35:26;6.43;;;3.07;;
10847;SDS011;5477;48.806;9.154;2022-11-15T15:37:57;4.60;;;2.70;;
10847;SDS011;5477;48.806;9.154;2022-11-15T15:40:27;4.90;;;2.73;;
10847;SDS011;5477;48.806;9.154;2022-11-15T15:42:56;4.00;;;2.80;;
10847;SDS011;5477;48.806;9.154;2022-11-15T15:45:25;4.33;;;2.90;;
10847;SDS011;5477;48.806;9.154;2022-11-15T15:47:54;4.17;;;2.83;;
10847;SDS011;5477;48.806;9.154;2022-11-15T15:50:23;4.27;;;2.43;;
10847;SDS011;5477;48.806;9.154;2022-11-15T15:52:53;7.73;;;3.17;;
10847;SDS011;5477;48.806;9.154;2022-11-15T15:55:23;4.43;;;2.87;;
10847;SDS011;5477;48.806;9.154;2022-11-15T15:57:53;5.13;;;3.20;;
10847;SDS011;5477;48.806;9.154;2022-11-15T16:00:21;6.83;;;3.67;;
10847;SDS011;5477;48.806;9.154;2022-11-15T16:02:51;4.03;;;3.10;;
10847;SDS011;5477;48.806;9.154;2022-11-15T16:05:19;4.77;;;3.03;;
10847;SDS011;5477;48.806;9.154;2022-11-15T16:07:47;4.23;;;3.17;;
10847;SDS011;5477;48.806;9.154;2022-11-15T16:10:17;4.47;;;2.83;;
10847;SDS011;5477;48.806;9.154;2022-11-15T16:12:48;5.30;;;3.33;;
10847;SDS011;5477;48.806;9.154;2022-11-15T16:15:18;5.10;;;2.80;;
10847;SDS011;5477;48.806;9.154;2022-11-15T16:17:48;4.97;;;3.20;;
10847;SDS011;5477;48.806;9.154;2022-11-15T16:20:21;4.03;;;2.90;;
10847;SDS011;5477;48.806;9.154;2022-11-15T16:22:53;5.97;;;3.20;;
10847;SDS011;5477;48.806;9.154;2022-11-15T16:25:21;6.13;;;3.23;;
10847;SDS011;5477;48.806;9.154;2022-11-15T16:27:49;5.33;;;3.70;;
10847;SDS011;5477;48.806;9.154;2022-11-15T16:30:21;7.47;;;3.70;;
10847;SDS011;5477;48.806;9.154;2022-11-15T16:32:49;6.50;;;3.50;;
10847;SDS011;5477;48.806;9.154;2022-11-15T16:35:17;6.10;;;4.10;;
10847;SDS011;5477;48.806;9.154;2022-11-15T16:37:46;7.80;;;4.03;;
10847;SDS011;5477;48.806;9.154;2022-11-15T16:40:17;4.63;;;3.67;;
10847;SDS011;5477;48.806;9.154;2022-11-15T16:42:52;5.30;;;3.33;;
10847;SDS011;5477;48.806;9.154;2022-11-15T16:45:22;5.57;;;3.57;;
10847;SDS011;5477;48.806;9.154;2022-11-15T16:47:51;6.60;;;3.60;;
10847;SDS011;5477;48.806;9.154;2022-11-15T16:50:20;4.43;;;3.70;;
10847;SDS011;5477;48.806;9.154;2022-11-15T16:52:50;7.10;;;3.33;;
10847;SDS011;5477;48.806;9.154;2022-11-15T16:55:19;7.73;;;3.63;;
10847;SDS011;5477;48.806;9.154;2022-11-15T16:57:48;6.27;;;3.80;;
10847;SDS011;5477;48.806;9.154;2022-11-15T17:00:17;6.07;;;3.73;;
10847;SDS011;5477;48.806;9.154;2022-11-15T17:02:48;12.90;;;5.83;;
10847;SDS011;5477;48.806;9.154;2022-11-15T17:05:17;13.43;;;7.10;;
10847;SDS011;5477;48.806;9.154;2022-11-15T17:07:47;51.50;;;22.60;;
10847;SDS011;5477;48.806;9.154;2022-11-15T17:10:17;15.37;;;8.90;;
10847;SDS011;5477;48.806;9.154;2022-11-15T17:13:03;27.93;;;15.37;;
10847;SDS011;5477;48.806;9.154;2022-11-15T17:15:31;6.97;;;4.87;;
10847;SDS011;5477;48.806;9.154;2022-11-15T17:18:01;21.83;;;11.50;;